Time;durP1;ratioP1;P1;durP2;ratioP2;P2;SDS_P1;SDS_P2;PMS_P1;PMS_P2;Temp;Humidity;BMP_temperature;BMP_pressure;BME280_temperature;BME280_humidity;BME280_pressure;Samples;Min_cycle;Max_cycle;Signal;HPM_P1;HPM_P2
2022/06/30 00:01:36;;;;;;;6.10;4.88;;;23.00;79.20;;;;;;4946374;28;98077;-75
2022/06/30 00:04:04;;;;;;;5.60;5.10;;;23.00;79.40;;;;;;4942485;28;99219;-75
2022/06/30 00:06:31;;;;;;;5.03;4.53;;;23.00;79.70;;;;;;4949744;28;101750;-75
2022/06/30 00:08:58;;;;;;;5.45;5.05;;;22.90;79.60;;;;;;4948156;28;99438;-75
2022/06/30 00:11:25;;;;;;;6.20;5.80;;;22.90;79.80;;;;;;4925732;28;98580;-75
2022/06/30 00:13:52;;;;;;;5.75;5.25;;;22.90;80.00;;;;;;4933417;28;99345;-75
2022/06/30 00:16:19;;;;;;;5.03;4.60;;;22.80;80.10;;;;;;4943606;28;99092;-75
2022/06/30 00:18:47;;;;;;;4.95;4.65;;;22.80;80.50;;;;;;4938336;28;98574;-75
2022/06/30 00:21:14;;;;;;;5.50;5.07;;;22.80;81.10;;;;;;4940101;28;98641;-75
2022/06/30 00:23:40;;;;;;;4.97;4.57;;;22.70;80.70;;;;;;4947125;28;99373;-75
2022/06/30 00:26:08;;;;;;;6.43;6.03;;;22.70;81.20;;;;;;4942730;28;99031;-75
2022/06/30 00:28:35;;;;;;;6.15;5.60;;;22.60;81.30;;;;;;4939821;28;98566;-75
2022/06/30 00:31:02;;;;;;;5.53;5.03;;;22.60;81.40;;;;;;4945781;28;99557;-75
2022/06/30 00:33:28;;;;;;;5.03;4.53;;;22.50;81.90;;;;;;4946281;28;102483;-75
2022/06/30 00:35:56;;;;;;;5.45;4.28;;;22.50;81.40;;;;;;4945483;28;102214;-75
2022/06/30 00:38:22;;;;;;;6.07;5.68;;;22.50;81.60;;;;;;4945775;28;98508;-75
2022/06/30 00:40:49;;;;;;;5.22;4.82;;;22.40;81.90;;;;;;4942862;28;98999;-75
2022/06/30 00:43:16;;;;;;;5.03;4.47;;;22.40;82.10;;;;;;4943503;28;99672;-75
2022/06/30 00:45:47;;;;;;;6.40;5.88;;;22.40;81.80;;;;;;4933179;28;101398;-75
2022/06/30 00:48:16;;;;;;;4.88;4.53;;;22.30;82.00;;;;;;4944550;28;98463;-75
2022/06/30 00:50:43;;;;;;;5.22;4.82;;;22.30;82.20;;;;;;4937199;28;97824;-75
2022/06/30 00:53:11;;;;;;;6.25;5.75;;;22.30;82.20;;;;;;4949992;28;100461;-75
2022/06/30 00:55:39;;;;;;;4.90;4.60;;;22.30;82.30;;;;;;4945772;28;99202;-75
2022/06/30 00:58:08;;;;;;;4.97;4.47;;;22.40;82.10;;;;;;4951995;28;99293;-75
2022/06/30 01:00:38;;;;;;;5.65;5.25;;;22.30;81.70;;;;;;4940319;28;98501;-75
2022/06/30 01:03:07;;;;;;;5.40;4.90;;;22.40;81.70;;;;;;4947051;28;99423;-75
2022/06/30 01:05:36;;;;;;;6.07;5.72;;;22.40;81.70;;;;;;4941387;28;99179;-75
2022/06/30 01:08:04;;;;;;;5.63;5.13;;;22.40;81.70;;;;;;4928351;28;98519;-75
2022/06/30 01:13:17;;;;;;;5.60;4.90;;;22.30;81.70;;;;;;4952411;28;102619;-75
2022/06/30 01:15:44;;;;;;;4.15;3.85;;;22.30;81.80;;;;;;4943802;28;98992;-75
2022/06/30 01:18:11;;;;;;;4.90;4.60;;;22.30;81.90;;;;;;4943733;28;98521;-75
2022/06/30 01:20:38;;;;;;;5.32;4.18;;;22.30;81.70;;;;;;4945944;28;98613;-75
2022/06/30 01:23:05;;;;;;;6.47;5.95;;;22.40;81.80;;;;;;4927847;28;99870;-75
2022/06/30 01:25:34;;;;;;;5.45;5.03;;;22.40;81.50;;;;;;4933674;28;102374;-75
2022/06/30 01:28:02;;;;;;;4.45;4.05;;;22.40;81.30;;;;;;4935492;28;99266;-75
2022/06/30 01:30:29;;;;;;;5.63;5.25;;;22.40;81.40;;;;;;4946994;28;98450;-75
2022/06/30 01:32:56;;;;;;;4.55;4.20;;;22.40;81.50;;;;;;4945364;28;99121;-75
2022/06/30 01:35:24;;;;;;;4.70;4.00;;;22.30;81.10;;;;;;4948092;28;99049;-75
2022/06/30 01:37:54;;;;;;;6.18;5.68;;;22.40;81.10;;;;;;4945681;28;98538;-75
2022/06/30 01:40:23;;;;;;;4.68;4.30;;;22.40;81.40;;;;;;4941444;28;97883;-75
2022/06/30 01:42:50;;;;;;;5.03;4.40;;;22.40;81.50;;;;;;4942566;28;102222;-75
2022/06/30 01:45:18;;;;;;;6.32;5.95;;;22.40;81.30;;;;;;4942494;28;99087;-75
2022/06/30 01:47:45;;;;;;;6.85;5.32;;;22.30;81.50;;;;;;4946960;28;99195;-75
2022/06/30 01:50:16;;;;;;;4.45;3.92;;;22.30;81.50;;;;;;4946338;28;98527;-75
2022/06/30 01:52:43;;;;;;;5.20;4.10;;;22.40;81.60;;;;;;4943786;28;99238;-75
2022/06/30 01:55:12;;;;;;;5.80;5.40;;;22.30;81.50;;;;;;4942368;28;99208;-75
2022/06/30 01:57:39;;;;;;;4.70;4.35;;;22.30;81.50;;;;;;4959208;28;98583;-75
2022/06/30 02:00:12;;;;;;;4.80;4.30;;;22.30;81.80;;;;;;4945381;28;101133;-75
2022/06/30 02:02:40;;;;;;;;;;;22.30;81.80;;;;;;4944319;28;99635;-75
2022/06/30 02:05:08;;;;;;;4.57;4.18;;;22.10;82.30;;;;;;4940689;28;101159;-74
2022/06/30 02:07:36;;;;;;;4.68;4.35;;;22.00;82.60;;;;;;4945242;28;98528;-75
2022/06/30 02:10:05;;;;;;;4.65;4.25;;;22.00;83.30;;;;;;4934305;28;98610;-75
2022/06/30 02:12:47;;;;;;;6.15;5.38;;;22.00;82.90;;;;;;4941058;28;100154;-75
2022/06/30 02:15:44;;;;;;;5.83;5.53;;;21.90;82.90;;;;;;4946904;28;99822;-74
2022/06/30 02:18:11;;;;;;;4.75;4.45;;;21.90;83.20;;;;;;4942161;28;98610;-75
2022/06/30 02:20:38;;;;;;;6.20;5.78;;;21.80;83.70;;;;;;4942708;28;98473;-75
2022/06/30 02:23:05;;;;;;;6.05;5.65;;;21.80;83.90;;;;;;4942904;28;99341;-75
2022/06/30 02:25:33;;;;;;;5.45;4.90;;;21.70;83.90;;;;;;4939726;28;99089;-75
2022/06/30 02:28:02;;;;;;;4.85;4.45;;;21.70;84.20;;;;;;4945292;28;99337;-75
2022/06/30 02:30:29;;;;;;;4.88;4.47;;;21.60;84.50;;;;;;4949736;28;97838;-75
2022/06/30 02:32:56;;;;;;;5.15;4.70;;;21.60;84.50;;;;;;4940681;28;102107;-74
2022/06/30 02:35:23;;;;;;;5.13;4.72;;;21.60;84.80;;;;;;4943293;28;99058;-75
2022/06/30 02:37:50;;;;;;;4.60;4.30;;;21.50;85.10;;;;;;4941999;28;99323;-75
2022/06/30 02:40:17;;;;;;;5.57;5.07;;;21.50;85.30;;;;;;4944159;28;98490;-75
2022/06/30 02:42:44;;;;;;;4.82;4.40;;;21.40;85.50;;;;;;4951461;28;101659;-75
2022/06/30 02:45:12;;;;;;;6.43;5.93;;;21.40;85.80;;;;;;4945318;28;99131;-75
2022/06/30 02:47:41;;;;;;;5.70;5.20;;;21.40;86.10;;;;;;4939094;28;98552;-75
2022/06/30 02:50:10;;;;;;;6.13;5.63;;;21.40;86.20;;;;;;4941140;28;98558;-75
2022/06/30 02:52:38;;;;;;;5.22;4.82;;;21.30;86.30;;;;;;4943698;28;99494;-75
2022/06/30 02:55:07;;;;;;;6.10;5.60;;;21.30;86.40;;;;;;4950348;28;99439;-74
2022/06/30 02:57:35;;;;;;;4.85;4.45;;;21.20;86.50;;;;;;4947323;28;98601;-74
2022/06/30 03:00:05;;;;;;;6.13;5.72;;;21.20;86.60;;;;;;4959800;28;98669;-74
2022/06/30 03:02:32;;;;;;;6.82;6.25;;;21.20;86.90;;;;;;4950828;28;102493;-74
2022/06/30 03:04:58;;;;;;;6.30;5.70;;;21.10;86.60;;;;;;4927023;28;99856;-75
2022/06/30 03:07:25;;;;;;;6.18;5.68;;;21.10;87.30;;;;;;4951841;28;98632;-75
2022/06/30 03:09:52;;;;;;;5.25;4.95;;;21.10;87.30;;;;;;4938975;28;99196;-75
2022/06/30 03:12:19;;;;;;;6.07;5.57;;;21.10;87.30;;;;;;4942319;28;99165;-75
2022/06/30 03:14:47;;;;;;;6.05;5.60;;;21.00;87.60;;;;;;4927275;28;99590;-75
2022/06/30 03:17:14;;;;;;;5.57;5.07;;;21.00;87.60;;;;;;4946077;28;98448;-74
2022/06/30 03:19:41;;;;;;;5.18;4.68;;;21.00;87.80;;;;;;4940291;28;97914;-75
2022/06/30 03:22:08;;;;;;;6.00;5.60;;;21.00;87.70;;;;;;4944093;28;99402;-75
2022/06/30 03:24:35;;;;;;;6.47;5.88;;;20.90;87.80;;;;;;4940196;28;99042;-75
2022/06/30 03:27:02;;;;;;;5.97;5.30;;;20.90;87.90;;;;;;4944039;28;100068;-75
2022/06/30 03:29:29;;;;;;;6.65;6.25;;;20.90;87.80;;;;;;4930328;28;98709;-75
2022/06/30 03:31:56;;;;;;;6.30;5.85;;;20.90;88.10;;;;;;4940292;28;101829;-74
2022/06/30 03:34:23;;;;;;;6.30;5.75;;;20.90;88.40;;;;;;4940883;28;120271;-75
2022/06/30 03:36:51;;;;;;;6.00;5.45;;;20.80;88.40;;;;;;4944505;28;98534;-75
2022/06/30 03:39:17;;;;;;;6.40;5.88;;;20.80;88.40;;;;;;4932827;28;98631;-75
2022/06/30 03:41:44;;;;;;;6.93;6.30;;;20.80;89.20;;;;;;4940651;28;101825;-74
2022/06/30 03:44:11;;;;;;;6.82;5.53;;;20.80;88.70;;;;;;4943925;28;99167;-75
2022/06/30 03:46:38;;;;;;;5.80;5.30;;;20.80;88.80;;;;;;4942371;28;98570;-74
2022/06/30 03:49:05;;;;;;;9.93;7.72;;;20.80;88.90;;;;;;4925173;28;98592;-74
2022/06/30 03:51:32;;;;;;;7.65;6.57;;;20.70;88.70;;;;;;4942126;28;100146;-74
2022/06/30 03:53:59;;;;;;;6.93;6.10;;;20.80;88.80;;;;;;4916266;28;100753;-74
2022/06/30 03:56:26;;;;;;;7.68;5.57;;;20.80;88.90;;;;;;4938227;28;99060;-74
2022/06/30 03:58:53;;;;;;;7.82;7.05;;;21.00;88.60;;;;;;4942344;28;98511;-74
2022/06/30 04:01:20;;;;;;;6.30;5.80;;;21.20;87.80;;;;;;4931914;28;100311;-75
2022/06/30 04:03:47;;;;;;;6.30;5.80;;;21.40;87.20;;;;;;4942533;28;98992;-74
2022/06/30 04:06:14;;;;;;;6.40;5.15;;;21.70;86.40;;;;;;4947442;28;99469;-74
2022/06/30 04:08:41;;;;;;;6.43;5.72;;;21.90;85.50;;;;;;4953378;28;97844;-75
2022/06/30 04:11:08;;;;;;;7.63;6.43;;;22.00;85.00;;;;;;4951811;28;102689;-74
2022/06/30 04:13:35;;;;;;;6.05;5.55;;;22.00;84.60;;;;;;4941310;28;101492;-75
2022/06/30 04:16:02;;;;;;;6.28;5.55;;;22.00;84.50;;;;;;4944884;28;99182;-75
2022/06/30 04:18:30;;;;;;;6.60;6.13;;;21.90;84.80;;;;;;4946640;28;98567;-75
2022/06/30 04:20:57;;;;;;;6.35;5.80;;;21.80;84.70;;;;;;4941501;28;101867;-74
2022/06/30 04:23:24;;;;;;;8.82;8.15;;;21.80;84.90;;;;;;4940694;28;99042;-74
2022/06/30 04:25:51;;;;;;;5.93;5.43;;;21.80;84.90;;;;;;4949038;28;99058;-74
2022/06/30 04:28:18;;;;;;;7.38;6.88;;;21.80;84.90;;;;;;4945969;28;100983;-74
2022/06/30 04:33:30;;;;;;;6.95;6.35;;;21.70;85.20;;;;;;4947567;28;101523;-75
2022/06/30 04:35:57;;;;;;;6.03;5.57;;;21.70;85.30;;;;;;4945357;28;99114;-74
2022/06/30 04:38:24;;;;;;;6.05;5.55;;;21.60;85.40;;;;;;4946347;28;98566;-74
2022/06/30 04:43:36;;;;;;;7.15;5.57;;;21.60;85.80;;;;;;4945061;28;99689;-75
2022/06/30 04:46:03;;;;;;;5.95;5.47;;;21.50;85.90;;;;;;4945105;28;98670;-75
2022/06/30 04:48:30;;;;;;;6.95;6.28;;;21.50;85.90;;;;;;4945296;28;98539;-74
2022/06/30 04:50:57;;;;;;;6.78;5.60;;;21.50;85.90;;;;;;4945439;28;99267;-75
2022/06/30 04:53:24;;;;;;;5.55;5.07;;;21.50;86.00;;;;;;4949895;28;100115;-74
2022/06/30 04:55:51;;;;;;;7.25;5.75;;;21.50;86.00;;;;;;4942751;28;98585;-74
2022/06/30 04:58:18;;;;;;;6.68;6.00;;;21.50;86.10;;;;;;4942967;28;97876;-75
2022/06/30 05:00:45;;;;;;;8.57;7.97;;;21.60;86.10;;;;;;4944088;28;99291;-75
2022/06/30 05:03:12;;;;;;;5.70;5.20;;;21.60;86.00;;;;;;4933689;28;101555;-75
2022/06/30 05:05:39;;;;;;;9.25;6.68;;;21.60;85.90;;;;;;4945240;28;99295;-74
2022/06/30 05:08:06;;;;;;;9.65;6.78;;;21.70;86.20;;;;;;4945182;28;98590;-75
2022/06/30 05:10:33;;;;;;;6.80;5.68;;;21.70;86.10;;;;;;4948974;28;101807;-75
2022/06/30 05:13:00;;;;;;;5.72;5.30;;;21.80;86.20;;;;;;4945019;28;98745;-75
2022/06/30 05:15:27;;;;;;;5.50;5.05;;;21.80;86.20;;;;;;4952071;28;98530;-75
2022/06/30 05:17:54;;;;;;;6.47;5.97;;;21.90;86.10;;;;;;4953033;28;98629;-75
2022/06/30 05:20:21;;;;;;;6.70;6.20;;;21.90;85.90;;;;;;4929644;28;100476;-75
2022/06/30 05:22:47;;;;;;;5.45;4.97;;;22.00;85.90;;;;;;4941094;28;99017;-75
2022/06/30 05:28:11;;;;;;;7.00;6.40;;;22.00;85.30;;;;;;4945066;28;98620;-75
2022/06/30 05:30:39;;;;;;;6.78;6.28;;;22.00;85.60;;;;;;4942420;28;99906;-75
2022/06/30 05:33:06;;;;;;;6.53;5.93;;;22.00;85.70;;;;;;4940833;28;99644;-75
2022/06/30 05:35:33;;;;;;;7.00;6.30;;;22.00;85.80;;;;;;4946523;28;99584;-75
2022/06/30 05:38:00;;;;;;;6.78;6.28;;;22.10;85.70;;;;;;4945549;28;98568;-75
2022/06/30 05:40:28;;;;;;;6.88;6.10;;;22.10;85.70;;;;;;4944340;28;99370;-74
2022/06/30 05:42:55;;;;;;;5.35;4.85;;;22.20;85.90;;;;;;4928206;28;101659;-75
2022/06/30 05:45:22;;;;;;;6.15;5.55;;;22.30;85.90;;;;;;4951983;28;98697;-75
2022/06/30 05:47:50;;;;;;;6.30;5.70;;;22.40;85.50;;;;;;4947183;28;97809;-75
2022/06/30 05:50:19;;;;;;;7.28;6.68;;;22.50;85.00;;;;;;4943597;28;99361;-75
2022/06/30 05:52:50;;;;;;;6.63;6.03;;;22.60;84.50;;;;;;4945158;28;101689;-75
2022/06/30 05:55:18;;;;;;;5.97;5.38;;;22.80;84.10;;;;;;4945790;28;99240;-75
2022/06/30 05:57:56;;;;;;;6.60;6.10;;;22.90;84.20;;;;;;4942433;28;98594;-75
2022/06/30 06:00:25;;;;;;;6.90;5.53;;;23.00;83.30;;;;;;4945808;28;102242;-75
2022/06/30 06:02:53;;;;;;;6.53;6.13;;;23.10;83.20;;;;;;4940773;28;99476;-75
2022/06/30 06:05:21;;;;;;;5.45;4.95;;;23.20;83.10;;;;;;4944820;28;98559;-75
2022/06/30 06:07:49;;;;;;;6.75;6.10;;;23.30;82.70;;;;;;4943546;28;98507;-75
2022/06/30 06:10:16;;;;;;;7.15;6.43;;;23.40;82.50;;;;;;4945913;28;99248;-75
2022/06/30 06:12:43;;;;;;;5.28;4.82;;;23.60;82.50;;;;;;4941289;28;99084;-75
2022/06/30 06:15:15;;;;;;;8.20;5.78;;;23.60;82.00;;;;;;4948133;28;98723;-74
2022/06/30 06:17:43;;;;;;;7.20;6.57;;;23.80;81.70;;;;;;4942782;28;98444;-75
2022/06/30 06:20:16;;;;;;;5.97;5.40;;;23.70;81.70;;;;;;4945225;28;100108;-75
2022/06/30 06:22:44;;;;;;;8.13;5.90;;;23.80;81.70;;;;;;4951896;28;99619;-75
2022/06/30 06:25:12;;;;;;;6.40;5.80;;;23.80;81.90;;;;;;4941061;28;98697;-75
2022/06/30 06:27:40;;;;;;;7.78;7.18;;;23.80;81.70;;;;;;4944678;28;98527;-75
2022/06/30 06:30:08;;;;;;;7.75;5.70;;;23.80;81.60;;;;;;4941354;28;112908;-75
2022/06/30 06:32:36;;;;;;;6.22;5.63;;;23.90;81.60;;;;;;4943042;28;99147;-75
2022/06/30 06:35:06;;;;;;;6.57;5.93;;;23.90;81.50;;;;;;4948836;28;98540;-75
2022/06/30 06:37:37;;;;;;;5.60;4.82;;;24.00;81.50;;;;;;4947917;28;98720;-75
2022/06/30 06:40:05;;;;;;;6.90;6.03;;;23.90;81.60;;;;;;4944656;28;99068;-75
2022/06/30 06:42:31;;;;;;;7.00;5.78;;;24.00;82.00;;;;;;4946195;28;101799;-75
2022/06/30 06:44:58;;;;;;;6.13;5.15;;;24.10;81.70;;;;;;4938708;28;99688;-75
2022/06/30 06:47:26;;;;;;;7.53;6.82;;;24.20;81.90;;;;;;4943902;28;98579;-75
2022/06/30 06:49:52;;;;;;;5.10;4.60;;;24.30;81.50;;;;;;4951429;28;101877;-75
2022/06/30 06:52:19;;;;;;;7.35;5.30;;;24.50;80.80;;;;;;4949868;28;101459;-75
2022/06/30 06:54:46;;;;;;;5.70;5.03;;;24.80;80.00;;;;;;4941489;28;98551;-75
2022/06/30 06:57:13;;;;;;;7.40;5.90;;;25.10;78.70;;;;;;4941852;28;98535;-75
2022/06/30 06:59:40;;;;;;;6.85;6.25;;;25.30;78.10;;;;;;4941230;28;98646;-75
2022/06/30 07:02:07;;;;;;;5.63;5.00;;;25.30;78.10;;;;;;4949539;28;99746;-75
2022/06/30 07:04:35;;;;;;;5.30;4.90;;;25.30;78.20;;;;;;4943745;28;98544;-75
2022/06/30 07:07:02;;;;;;;6.82;6.25;;;25.30;78.00;;;;;;4945053;28;98530;-75
2022/06/30 07:09:29;;;;;;;6.85;6.13;;;25.20;78.10;;;;;;4940659;28;99968;-75
2022/06/30 07:11:56;;;;;;;6.28;5.45;;;25.20;78.30;;;;;;4940062;28;99679;-75
2022/06/30 07:14:23;;;;;;;5.75;5.20;;;25.10;78.40;;;;;;4939424;28;99030;-75
2022/06/30 07:16:50;;;;;;;7.63;6.50;;;25.20;78.80;;;;;;4951044;28;98663;-75
2022/06/30 07:19:17;;;;;;;7.20;6.32;;;25.20;78.80;;;;;;4941041;28;99404;-75
2022/06/30 07:21:44;;;;;;;6.80;6.20;;;25.30;79.00;;;;;;4929167;28;101540;-75
2022/06/30 07:24:11;;;;;;;6.22;5.63;;;25.30;78.80;;;;;;4941608;28;99142;-75
2022/06/30 07:26:38;;;;;;;7.68;7.03;;;25.30;78.80;;;;;;4940959;28;97837;-75
2022/06/30 07:29:05;;;;;;;7.18;6.60;;;25.40;79.10;;;;;;4942831;28;104318;-75
2022/06/30 07:31:32;;;;;;;6.85;6.25;;;25.40;78.90;;;;;;4926763;28;99095;-75
2022/06/30 07:33:59;;;;;;;8.38;7.68;;;25.50;79.20;;;;;;4949735;28;99729;-75
2022/06/30 07:36:26;;;;;;;8.95;8.25;;;25.60;79.30;;;;;;4956219;28;98676;-75
2022/06/30 07:38:53;;;;;;;7.20;6.50;;;25.70;79.10;;;;;;4950171;28;101807;-75
2022/06/30 07:41:21;;;;;;;7.95;7.15;;;25.80;79.50;;;;;;4931294;28;101422;-75
2022/06/30 07:43:48;;;;;;;7.13;6.55;;;25.90;79.30;;;;;;4945516;28;98425;-75
2022/06/30 07:46:15;;;;;;;7.53;6.93;;;26.00;79.60;;;;;;4946628;28;98643;-75
2022/06/30 07:48:43;;;;;;;6.88;6.28;;;26.10;79.60;;;;;;4949167;28;104994;-75
2022/06/30 07:51:10;;;;;;;7.10;6.50;;;26.10;79.10;;;;;;4948424;28;99105;-75
2022/06/30 07:53:40;;;;;;;7.60;6.15;;;26.20;79.00;;;;;;4943937;28;98507;-75
2022/06/30 07:56:38;;;;;;;8.35;7.68;;;26.20;79.20;;;;;;4945202;28;98519;-75
2022/06/30 07:59:06;;;;;;;7.13;6.63;;;26.40;78.90;;;;;;4933199;28;100178;-75
2022/06/30 08:01:33;;;;;;;7.65;6.85;;;26.30;79.30;;;;;;4947842;28;100843;-75
2022/06/30 08:04:00;;;;;;;8.32;7.32;;;26.40;79.40;;;;;;4929342;28;99441;-75
2022/06/30 08:06:27;;;;;;;8.20;7.47;;;26.40;79.30;;;;;;4947306;28;98642;-75
2022/06/30 08:08:54;;;;;;;7.70;7.00;;;26.50;79.50;;;;;;4944841;28;99411;-75
2022/06/30 08:11:22;;;;;;;7.75;7.05;;;26.80;78.90;;;;;;4941671;28;101601;-75
2022/06/30 08:13:49;;;;;;;7.40;6.80;;;27.40;78.40;;;;;;4931012;28;98633;-75
2022/06/30 08:16:16;;;;;;;7.20;6.70;;;28.30;76.60;;;;;;4944558;28;97968;-75
2022/06/30 08:18:43;;;;;;;6.95;6.45;;;29.40;73.20;;;;;;4945876;28;99417;-75
2022/06/30 08:21:10;;;;;;;7.70;7.20;;;30.40;70.70;;;;;;4945215;28;101486;-75
2022/06/30 08:23:40;;;;;;;6.93;6.43;;;31.40;68.60;;;;;;4947594;28;99154;-75
2022/06/30 08:26:06;;;;;;;6.22;5.72;;;32.40;66.40;;;;;;4945706;28;98466;-76
2022/06/30 08:28:33;;;;;;;5.82;5.32;;;33.30;63.60;;;;;;4946391;28;99300;-76
2022/06/30 08:31:01;;;;;;;7.25;6.65;;;34.20;62.10;;;;;;4945690;28;112022;-76
2022/06/30 08:33:28;;;;;;;6.88;6.38;;;35.20;59.40;;;;;;4948057;28;98490;-76
2022/06/30 08:35:55;;;;;;;7.30;6.70;;;35.90;57.50;;;;;;4944861;28;98621;-76
2022/06/30 08:38:25;;;;;;;7.57;7.18;;;36.60;55.00;;;;;;4944629;28;99272;-76
2022/06/30 08:43:59;;;;;;;6.93;6.43;;;37.90;51.90;;;;;;4927672;28;98781;-76
2022/06/30 08:46:27;;;;;;;5.90;5.40;;;38.40;49.90;;;;;;4927526;28;98621;-76
2022/06/30 08:48:55;;;;;;;6.93;6.22;;;38.60;49.30;;;;;;4929566;28;101584;-76
2022/06/30 08:51:25;;;;;;;6.70;6.30;;;38.80;48.00;;;;;;4947922;28;99809;-76
2022/06/30 08:53:57;;;;;;;6.82;6.22;;;39.20;47.50;;;;;;4951217;28;98695;-76
2022/06/30 08:56:24;;;;;;;7.68;7.15;;;39.60;46.50;;;;;;4949256;28;98495;-76
2022/06/30 08:58:51;;;;;;;6.50;5.90;;;39.70;46.00;;;;;;4944915;28;99347;-76
2022/06/30 09:01:18;;;;;;;6.80;6.40;;;39.80;45.40;;;;;;4952735;28;99401;-76
2022/06/30 09:03:46;;;;;;;6.28;5.88;;;39.80;44.80;;;;;;4943284;28;99331;-76
2022/06/30 09:06:13;;;;;;;7.32;6.82;;;39.90;44.70;;;;;;4950457;28;98284;-76
2022/06/30 09:08:56;;;;;;;6.85;6.35;;;39.80;44.70;;;;;;4948746;28;99512;-76
2022/06/30 09:11:49;;;;;;;6.55;5.95;;;39.70;44.80;;;;;;4949277;28;101677;-76
2022/06/30 09:14:42;;;;;;;7.18;6.68;;;39.70;44.20;;;;;;4945326;28;99373;-76
2022/06/30 09:17:13;;;;;;;7.03;6.43;;;39.00;44.40;;;;;;4945800;28;98605;-76
2022/06/30 09:19:58;;;;;;;7.57;6.93;;;38.20;45.70;;;;;;4944787;28;99381;-76
2022/06/30 09:22:45;;;;;;;7.43;6.82;;;37.50;47.00;;;;;;4941707;28;99078;-76
2022/06/30 09:25:20;;;;;;;6.40;5.90;;;36.70;48.40;;;;;;4945336;28;99234;-76
2022/06/30 09:27:50;;;;;;;7.22;6.72;;;36.00;49.60;;;;;;4942880;28;98526;-76
2022/06/30 09:30:21;;;;;;;8.48;7.75;;;35.30;50.50;;;;;;4945330;28;99277;-76
2022/06/30 09:32:52;;;;;;;6.80;6.15;;;34.80;51.40;;;;;;4948516;28;99167;-76
2022/06/30 09:35:24;;;;;;;7.53;6.90;;;34.40;52.80;;;;;;4940465;28;98549;-76
2022/06/30 09:38:12;;;;;;;9.32;8.55;;;34.00;53.70;;;;;;4945991;28;98626;-76
2022/06/30 09:41:01;;;;;;;8.88;8.18;;;33.70;55.00;;;;;;4957804;28;106701;-76
2022/06/30 09:43:36;;;;;;;9.32;6.93;;;33.30;56.00;;;;;;4941865;28;102282;-76
2022/06/30 09:46:05;;;;;;;8.98;8.18;;;32.90;57.00;;;;;;4945893;28;99135;-76
2022/06/30 09:48:33;;;;;;;7.75;7.15;;;32.60;57.40;;;;;;4941186;28;99344;-76
2022/06/30 09:51:03;;;;;;;7.88;7.18;;;32.40;57.90;;;;;;4943606;28;99387;-75
2022/06/30 09:53:30;;;;;;;8.20;7.60;;;32.30;58.50;;;;;;4945220;28;99102;-76
2022/06/30 09:56:13;;;;;;;8.55;7.85;;;32.10;59.00;;;;;;4925219;28;98529;-76
2022/06/30 09:58:42;;;;;;;;;;;32.10;60.20;;;;;;4941229;28;97797;-76
2022/06/30 10:01:10;;;;;;;9.13;8.05;;;31.90;60.40;;;;;;4946955;28;99379;-76
2022/06/30 10:03:59;;;;;;;8.25;7.60;;;31.80;60.20;;;;;;4941426;28;99272;-76
2022/06/30 10:06:27;;;;;;;7.43;6.93;;;31.90;60.40;;;;;;4949495;28;99228;-76
2022/06/30 10:08:56;;;;;;;8.07;7.47;;;31.90;60.80;;;;;;4943163;28;98602;-76
2022/06/30 10:11:23;;;;;;;9.57;8.82;;;31.90;61.00;;;;;;4945900;28;100611;-76
2022/06/30 10:13:52;;;;;;;8.27;7.50;;;32.00;60.70;;;;;;4941159;28;99251;-76
2022/06/30 10:16:21;;;;;;;8.52;7.72;;;32.00;60.50;;;;;;4945217;28;98472;-76
2022/06/30 10:18:49;;;;;;;9.20;8.60;;;32.10;60.60;;;;;;4941609;28;99510;-76
2022/06/30 10:21:20;;;;;;;7.78;7.13;;;32.10;60.90;;;;;;4927412;28;101926;-76
2022/06/30 10:23:49;;;;;;;9.95;9.23;;;32.10;60.70;;;;;;4944240;28;99116;-76
2022/06/30 10:29:04;;;;;;;8.18;7.40;;;32.00;61.20;;;;;;4943995;28;99133;-76
2022/06/30 10:32:00;;;;;;;8.60;7.75;;;32.00;60.70;;;;;;4937696;28;102806;-76
2022/06/30 10:34:35;;;;;;;9.23;8.48;;;32.10;60.10;;;;;;4942894;28;99687;-76
2022/06/30 10:37:12;;;;;;;9.05;8.35;;;32.10;60.30;;;;;;4942050;28;98601;-76
2022/06/30 10:40:08;;;;;;;10.30;9.30;;;32.20;60.70;;;;;;4943937;28;98632;-76
2022/06/30 10:42:46;;;;;;;9.73;8.77;;;32.30;59.60;;;;;;4944226;28;99544;-76
2022/06/30 10:45:31;;;;;;;9.40;8.43;;;32.40;60.20;;;;;;4940690;28;99034;-75
2022/06/30 10:48:03;;;;;;;9.75;8.95;;;32.50;60.80;;;;;;4944963;28;98679;-76
2022/06/30 10:50:32;;;;;;;8.73;7.90;;;32.50;60.90;;;;;;4944648;28;97874;-76
2022/06/30 10:53:00;;;;;;;9.98;9.18;;;32.60;60.60;;;;;;4943216;28;99308;-76
2022/06/30 10:55:27;;;;;;;8.90;8.10;;;32.80;59.80;;;;;;4944822;28;99036;-75
2022/06/30 10:58:06;;;;;;;10.55;9.68;;;32.90;59.20;;;;;;4940998;28;99481;-76
2022/06/30 11:00:58;;;;;;;7.68;7.18;;;33.10;58.20;;;;;;4962096;28;98991;-76
2022/06/30 11:03:34;;;;;;;8.23;7.53;;;33.30;58.20;;;;;;4941130;28;99254;-76
2022/06/30 11:06:10;;;;;;;9.20;8.43;;;33.50;57.50;;;;;;4950143;28;99136;-76
2022/06/30 11:08:39;;;;;;;8.88;8.23;;;33.80;56.20;;;;;;4946543;28;98646;-76
2022/06/30 11:11:25;;;;;;;8.73;8.13;;;34.00;55.60;;;;;;4940370;28;99125;-76
2022/06/30 11:14:13;;;;;;;7.32;6.72;;;34.50;54.70;;;;;;4939440;28;99458;-76
2022/06/30 11:16:40;;;;;;;9.20;8.30;;;34.70;53.70;;;;;;4943518;28;100570;-76
2022/06/30 11:19:15;;;;;;;9.23;8.60;;;34.80;53.60;;;;;;4943920;28;98459;-76
2022/06/30 11:21:44;;;;;;;8.98;8.38;;;35.00;53.80;;;;;;4944707;28;98410;-76
2022/06/30 11:24:14;;;;;;;9.77;8.77;;;35.10;53.10;;;;;;4941850;28;112817;-76
2022/06/30 11:29:27;;;;;;;9.05;8.35;;;35.20;53.20;;;;;;4942350;28;98600;-76
2022/06/30 11:31:59;;;;;;;8.55;7.85;;;35.20;53.30;;;;;;4942153;28;98661;-76
2022/06/30 11:34:28;;;;;;;8.90;8.20;;;35.20;52.80;;;;;;4943726;28;99378;-76
2022/06/30 11:36:55;;;;;;;10.40;9.60;;;35.20;52.60;;;;;;4929053;28;101729;-76
2022/06/30 11:39:22;;;;;;;8.65;7.85;;;35.20;52.40;;;;;;4947285;28;98593;-76
2022/06/30 11:41:57;;;;;;;9.05;8.40;;;35.20;52.50;;;;;;4951363;28;97854;-76
2022/06/30 11:44:26;;;;;;;9.63;8.82;;;35.10;52.10;;;;;;4935215;28;101766;-76
2022/06/30 11:47:05;;;;;;;8.95;8.20;;;34.90;52.40;;;;;;4943841;28;101669;-76
2022/06/30 11:49:52;;;;;;;8.30;7.80;;;34.70;52.60;;;;;;4944640;28;99312;-76
2022/06/30 11:52:22;;;;;;;7.88;7.18;;;34.60;53.30;;;;;;4943129;28;99036;-75
2022/06/30 11:55:01;;;;;;;7.93;7.18;;;34.30;53.70;;;;;;4945379;28;99223;-76
2022/06/30 11:57:32;;;;;;;8.70;7.93;;;34.30;53.70;;;;;;4947570;28;98970;-76
2022/06/30 12:00:16;;;;;;;9.10;8.50;;;34.10;54.20;;;;;;4948669;28;98557;-76
2022/06/30 12:02:45;;;;;;;9.57;8.98;;;34.10;54.80;;;;;;4940866;28;98594;-75
2022/06/30 12:05:15;;;;;;;8.23;7.72;;;34.00;55.10;;;;;;4942240;28;99341;-76
2022/06/30 12:07:44;;;;;;;8.95;8.45;;;33.90;55.60;;;;;;4944258;28;99002;-75
2022/06/30 12:10:14;;;;;;;9.48;8.80;;;33.90;55.60;;;;;;4940069;28;99444;-76
2022/06/30 12:12:41;;;;;;;10.15;9.43;;;33.90;55.80;;;;;;4944399;28;98560;-75
2022/06/30 12:15:14;;;;;;;9.95;9.25;;;34.10;55.90;;;;;;4949713;28;100120;-76
2022/06/30 12:17:45;;;;;;;9.38;8.60;;;34.40;55.80;;;;;;4949626;28;98461;-76
2022/06/30 12:20:15;;;;;;;9.55;8.65;;;34.80;55.40;;;;;;4942931;28;99031;-76
2022/06/30 12:22:44;;;;;;;9.07;8.45;;;35.10;53.90;;;;;;4941991;28;98744;-76
2022/06/30 12:25:12;;;;;;;10.73;9.82;;;35.30;53.50;;;;;;4943471;28;99314;-76
2022/06/30 12:27:53;;;;;;;9.88;8.98;;;35.50;52.90;;;;;;4944493;28;99132;-76
2022/06/30 12:30:24;;;;;;;9.13;8.35;;;35.60;52.90;;;;;;4943496;28;100038;-76
2022/06/30 12:32:59;;;;;;;9.27;8.68;;;35.30;52.60;;;;;;4947741;28;97798;-76
2022/06/30 12:35:30;;;;;;;8.77;8.00;;;35.20;53.00;;;;;;4940354;28;99011;-75
2022/06/30 12:37:57;;;;;;;9.00;8.43;;;34.80;53.20;;;;;;4947059;28;98988;-76
2022/06/30 12:40:26;;;;;;;9.38;8.48;;;34.60;54.00;;;;;;4948766;28;99799;-75
2022/06/30 12:42:57;;;;;;;9.70;8.90;;;34.50;54.20;;;;;;4944263;28;98577;-76
2022/06/30 12:46:00;;;;;;;11.27;10.48;;;34.50;54.00;;;;;;4946500;28;99204;-76
2022/06/30 12:48:42;;;;;;;11.25;10.35;;;34.60;54.10;;;;;;4946293;28;99236;-76
2022/06/30 12:51:11;;;;;;;9.90;9.15;;;34.60;54.50;;;;;;4942343;28;98399;-76
2022/06/30 12:53:39;;;;;;;12.63;11.52;;;34.30;54.90;;;;;;4950090;28;99056;-75
2022/06/30 12:56:22;;;;;;;11.40;10.60;;;34.30;55.20;;;;;;4933046;28;100225;-76
2022/06/30 12:58:59;;;;;;;10.48;9.77;;;34.30;55.10;;;;;;4943844;28;99025;-76
2022/06/30 13:01:31;;;;;;;9.30;8.60;;;34.20;54.00;;;;;;4946345;28;98637;-76
2022/06/30 13:04:01;;;;;;;8.98;8.25;;;34.00;53.90;;;;;;4953575;28;99011;-75
2022/06/30 13:06:32;;;;;;;11.38;10.57;;;33.70;53.50;;;;;;4952621;28;102772;-75
2022/06/30 13:09:03;;;;;;;10.80;9.98;;;33.70;54.30;;;;;;4948996;28;101068;-75
2022/06/30 13:11:31;;;;;;;10.38;9.57;;;33.70;54.60;;;;;;4942752;28;98502;-76
2022/06/30 13:13:59;;;;;;;8.55;7.85;;;33.60;54.90;;;;;;4951826;28;98590;-76
2022/06/30 13:16:30;;;;;;;8.98;8.07;;;33.70;54.30;;;;;;4927938;28;101914;-76
2022/06/30 13:18:58;;;;;;;8.30;7.70;;;33.90;54.10;;;;;;4945044;28;101448;-76